sensor_id;sensor_type;location;lat;lon;timestamp;P1;durP1;ratioP1;P2;durP2;ratioP2
428;SDS011;201;48.758;9.290;2022-12-16T00:00:45;36.03;;;23.30;;
428;SDS011;201;48.758;9.290;2022-12-16T00:03:11;41.13;;;25.93;;
428;SDS011;201;48.758;9.290;2022-12-16T00:05:36;45.50;;;27.40;;
428;SDS011;201;48.758;9.290;2022-12-16T00:08:02;48.10;;;26.20;;
428;SDS011;201;48.758;9.290;2022-12-16T00:10:28;44.13;;;26.20;;
428;SDS011;201;48.758;9.290;2022-12-16T00:13:14;43.03;;;26.42;;
428;SDS011;201;48.758;9.290;2022-12-16T00:15:39;44.80;;;25.37;;
428;SDS011;201;48.758;9.290;2022-12-16T00:18:05;44.70;;;26.80;;
428;SDS011;201;48.758;9.290;2022-12-16T00:20:30;47.53;;;25.80;;
428;SDS011;201;48.758;9.290;2022-12-16T00:22:56;43.80;;;23.37;;
428;SDS011;201;48.758;9.290;2022-12-16T00:25:21;40.27;;;22.87;;
428;SDS011;201;48.758;9.290;2022-12-16T00:27:47;42.43;;;24.73;;
428;SDS011;201;48.758;9.290;2022-12-16T00:30:12;46.03;;;24.40;;
428;SDS011;201;48.758;9.290;2022-12-16T00:32:38;35.93;;;23.90;;
428;SDS011;201;48.758;9.290;2022-12-16T00:35:04;39.13;;;24.53;;
428;SDS011;201;48.758;9.290;2022-12-16T00:37:29;42.10;;;26.17;;
428;SDS011;201;48.758;9.290;2022-12-16T00:39:55;46.93;;;25.83;;
428;SDS011;201;48.758;9.290;2022-12-16T00:42:20;43.77;;;25.00;;
428;SDS011;201;48.758;9.290;2022-12-16T00:44:46;39.50;;;23.70;;
428;SDS011;201;48.758;9.290;2022-12-16T00:47:11;42.37;;;24.90;;
428;SDS011;201;48.758;9.290;2022-12-16T00:49:37;46.67;;;28.03;;
428;SDS011;201;48.758;9.290;2022-12-16T00:52:02;44.60;;;26.37;;
428;SDS011;201;48.758;9.290;2022-12-16T00:54:28;36.47;;;20.67;;
428;SDS011;201;48.758;9.290;2022-12-16T00:56:54;42.03;;;21.90;;
428;SDS011;201;48.758;9.290;2022-12-16T00:59:20;42.47;;;26.42;;
428;SDS011;201;48.758;9.290;2022-12-16T01:01:45;42.30;;;24.30;;
428;SDS011;201;48.758;9.290;2022-12-16T01:04:11;41.73;;;24.70;;
428;SDS011;201;48.758;9.290;2022-12-16T01:06:36;51.97;;;29.67;;
428;SDS011;201;48.758;9.290;2022-12-16T01:09:02;42.80;;;26.60;;
428;SDS011;201;48.758;9.290;2022-12-16T01:11:27;48.73;;;28.30;;
428;SDS011;201;48.758;9.290;2022-12-16T01:13:53;52.70;;;25.50;;
428;SDS011;201;48.758;9.290;2022-12-16T01:16:18;46.30;;;27.00;;
428;SDS011;201;48.758;9.290;2022-12-16T01:18:44;41.27;;;25.63;;
428;SDS011;201;48.758;9.290;2022-12-16T01:21:11;46.10;;;24.55;;
428;SDS011;201;48.758;9.290;2022-12-16T01:23:38;44.05;;;26.83;;
428;SDS011;201;48.758;9.290;2022-12-16T01:26:04;47.60;;;25.08;;
428;SDS011;201;48.758;9.290;2022-12-16T01:28:30;41.70;;;24.30;;
428;SDS011;201;48.758;9.290;2022-12-16T01:30:59;49.57;;;24.57;;
428;SDS011;201;48.758;9.290;2022-12-16T01:33:29;51.92;;;26.77;;
428;SDS011;201;48.758;9.290;2022-12-16T01:36:03;47.17;;;25.20;;
428;SDS011;201;48.758;9.290;2022-12-16T01:38:31;51.55;;;28.13;;
428;SDS011;201;48.758;9.290;2022-12-16T01:40:57;45.47;;;27.60;;
428;SDS011;201;48.758;9.290;2022-12-16T01:43:27;39.47;;;25.15;;
428;SDS011;201;48.758;9.290;2022-12-16T01:45:56;58.03;;;31.75;;
428;SDS011;201;48.758;9.290;2022-12-16T01:49:12;51.95;;;29.15;;
428;SDS011;201;48.758;9.290;2022-12-16T01:51:29;52.95;;;27.80;;
428;SDS011;201;48.758;9.290;2022-12-16T01:54:09;59.95;;;32.17;;
428;SDS011;201;48.758;9.290;2022-12-16T01:56:48;60.50;;;29.45;;
428;SDS011;201;48.758;9.290;2022-12-16T01:59:18;51.78;;;25.33;;
428;SDS011;201;48.758;9.290;2022-12-16T02:01:46;46.17;;;26.83;;
428;SDS011;201;48.758;9.290;2022-12-16T02:04:12;53.87;;;30.43;;
428;SDS011;201;48.758;9.290;2022-12-16T02:06:37;48.80;;;25.80;;
428;SDS011;201;48.758;9.290;2022-12-16T02:09:04;42.37;;;23.13;;
428;SDS011;201;48.758;9.290;2022-12-16T02:11:42;48.20;;;25.17;;
428;SDS011;201;48.758;9.290;2022-12-16T02:14:52;53.00;;;25.85;;
428;SDS011;201;48.758;9.290;2022-12-16T02:20:49;58.80;;;29.30;;
428;SDS011;201;48.758;9.290;2022-12-16T02:29:31;50.17;;;24.88;;
428;SDS011;201;48.758;9.290;2022-12-16T02:32:20;42.35;;;24.02;;
428;SDS011;201;48.758;9.290;2022-12-16T02:34:57;47.30;;;27.10;;
428;SDS011;201;48.758;9.290;2022-12-16T02:42:50;45.85;;;25.80;;
428;SDS011;201;48.758;9.290;2022-12-16T02:45:23;41.60;;;25.00;;
428;SDS011;201;48.758;9.290;2022-12-16T02:47:52;36.78;;;24.13;;
428;SDS011;201;48.758;9.290;2022-12-16T02:52:47;50.90;;;25.15;;
428;SDS011;201;48.758;9.290;2022-12-16T02:55:14;47.85;;;28.80;;
428;SDS011;201;48.758;9.290;2022-12-16T03:00:22;44.72;;;25.67;;
428;SDS011;201;48.758;9.290;2022-12-16T03:05:33;57.17;;;30.60;;
428;SDS011;201;48.758;9.290;2022-12-16T03:08:06;46.40;;;28.20;;
428;SDS011;201;48.758;9.290;2022-12-16T03:10:40;54.03;;;28.85;;
428;SDS011;201;48.758;9.290;2022-12-16T03:13:16;41.33;;;26.50;;
428;SDS011;201;48.758;9.290;2022-12-16T03:15:43;49.03;;;26.48;;
428;SDS011;201;48.758;9.290;2022-12-16T03:18:10;42.70;;;25.30;;
428;SDS011;201;48.758;9.290;2022-12-16T03:20:42;53.05;;;27.13;;
428;SDS011;201;48.758;9.290;2022-12-16T03:23:19;45.63;;;27.00;;
428;SDS011;201;48.758;9.290;2022-12-16T03:25:52;46.25;;;27.88;;
428;SDS011;201;48.758;9.290;2022-12-16T03:31:04;53.92;;;28.45;;
428;SDS011;201;48.758;9.290;2022-12-16T03:33:39;43.78;;;26.38;;
428;SDS011;201;48.758;9.290;2022-12-16T03:36:13;50.13;;;28.55;;
428;SDS011;201;48.758;9.290;2022-12-16T03:38:43;38.95;;;24.70;;
428;SDS011;201;48.758;9.290;2022-12-16T03:41:11;60.28;;;29.27;;
428;SDS011;201;48.758;9.290;2022-12-16T03:43:38;51.35;;;25.98;;
428;SDS011;201;48.758;9.290;2022-12-16T03:46:04;48.33;;;27.20;;
428;SDS011;201;48.758;9.290;2022-12-16T03:48:31;44.47;;;27.00;;
428;SDS011;201;48.758;9.290;2022-12-16T03:50:57;44.20;;;27.38;;
428;SDS011;201;48.758;9.290;2022-12-16T03:53:24;48.60;;;26.50;;
428;SDS011;201;48.758;9.290;2022-12-16T03:55:51;45.38;;;25.33;;
428;SDS011;201;48.758;9.290;2022-12-16T03:58:17;42.72;;;24.48;;
428;SDS011;201;48.758;9.290;2022-12-16T04:00:43;45.37;;;27.77;;
428;SDS011;201;48.758;9.290;2022-12-16T04:03:08;50.03;;;29.00;;
428;SDS011;201;48.758;9.290;2022-12-16T04:05:34;48.83;;;28.63;;
428;SDS011;201;48.758;9.290;2022-12-16T04:07:59;49.00;;;27.00;;
428;SDS011;201;48.758;9.290;2022-12-16T04:10:25;49.80;;;26.80;;
428;SDS011;201;48.758;9.290;2022-12-16T04:13:09;41.00;;;24.65;;
428;SDS011;201;48.758;9.290;2022-12-16T04:15:53;42.47;;;23.13;;
428;SDS011;201;48.758;9.290;2022-12-16T04:18:38;43.03;;;26.40;;
428;SDS011;201;48.758;9.290;2022-12-16T04:21:23;42.78;;;24.95;;
428;SDS011;201;48.758;9.290;2022-12-16T04:24:14;41.53;;;24.83;;
428;SDS011;201;48.758;9.290;2022-12-16T04:26:46;44.35;;;25.30;;
428;SDS011;201;48.758;9.290;2022-12-16T04:29:31;43.58;;;25.67;;
428;SDS011;201;48.758;9.290;2022-12-16T04:31:57;51.97;;;27.35;;
428;SDS011;201;48.758;9.290;2022-12-16T04:34:24;37.50;;;22.38;;
428;SDS011;201;48.758;9.290;2022-12-16T04:36:49;40.50;;;21.90;;
428;SDS011;201;48.758;9.290;2022-12-16T04:39:44;37.25;;;20.90;;
428;SDS011;201;48.758;9.290;2022-12-16T04:42:28;40.13;;;22.08;;
428;SDS011;201;48.758;9.290;2022-12-16T04:45:13;42.35;;;23.08;;
428;SDS011;201;48.758;9.290;2022-12-16T04:47:57;43.22;;;22.17;;
428;SDS011;201;48.758;9.290;2022-12-16T04:50:41;40.95;;;25.08;;
428;SDS011;201;48.758;9.290;2022-12-16T04:53:26;36.47;;;22.33;;
428;SDS011;201;48.758;9.290;2022-12-16T04:56:10;43.95;;;24.52;;
428;SDS011;201;48.758;9.290;2022-12-16T04:58:55;35.90;;;20.75;;
428;SDS011;201;48.758;9.290;2022-12-16T05:01:39;39.33;;;21.77;;
428;SDS011;201;48.758;9.290;2022-12-16T05:04:23;37.55;;;23.83;;
428;SDS011;201;48.758;9.290;2022-12-16T05:07:07;34.08;;;19.70;;
428;SDS011;201;48.758;9.290;2022-12-16T05:09:51;32.40;;;17.85;;
428;SDS011;201;48.758;9.290;2022-12-16T05:12:35;35.85;;;22.45;;
428;SDS011;201;48.758;9.290;2022-12-16T05:15:19;38.05;;;23.90;;
428;SDS011;201;48.758;9.290;2022-12-16T05:18:10;33.70;;;22.00;;
428;SDS011;201;48.758;9.290;2022-12-16T05:20:56;35.17;;;21.90;;
428;SDS011;201;48.758;9.290;2022-12-16T05:23:41;41.67;;;22.67;;
428;SDS011;201;48.758;9.290;2022-12-16T05:26:25;34.92;;;21.63;;
428;SDS011;201;48.758;9.290;2022-12-16T05:29:10;30.27;;;20.67;;
428;SDS011;201;48.758;9.290;2022-12-16T05:31:54;35.22;;;20.38;;
428;SDS011;201;48.758;9.290;2022-12-16T05:34:38;37.95;;;22.58;;
428;SDS011;201;48.758;9.290;2022-12-16T05:37:22;30.65;;;18.38;;
428;SDS011;201;48.758;9.290;2022-12-16T05:40:06;29.95;;;17.60;;
428;SDS011;201;48.758;9.290;2022-12-16T05:42:52;27.88;;;17.95;;
428;SDS011;201;48.758;9.290;2022-12-16T05:45:36;39.75;;;19.80;;
428;SDS011;201;48.758;9.290;2022-12-16T05:48:22;34.45;;;21.90;;
428;SDS011;201;48.758;9.290;2022-12-16T05:51:06;34.05;;;19.60;;
428;SDS011;201;48.758;9.290;2022-12-16T05:53:50;34.50;;;19.27;;
428;SDS011;201;48.758;9.290;2022-12-16T05:56:34;38.90;;;22.65;;
428;SDS011;201;48.758;9.290;2022-12-16T05:59:18;32.28;;;22.63;;
428;SDS011;201;48.758;9.290;2022-12-16T06:02:02;34.72;;;19.23;;
428;SDS011;201;48.758;9.290;2022-12-16T06:04:46;35.90;;;18.88;;
428;SDS011;201;48.758;9.290;2022-12-16T06:07:31;35.63;;;21.40;;
428;SDS011;201;48.758;9.290;2022-12-16T06:10:15;33.22;;;20.92;;
428;SDS011;201;48.758;9.290;2022-12-16T06:12:59;40.10;;;21.15;;
428;SDS011;201;48.758;9.290;2022-12-16T06:15:46;24.67;;;15.00;;
428;SDS011;201;48.758;9.290;2022-12-16T06:18:30;34.03;;;20.48;;
428;SDS011;201;48.758;9.290;2022-12-16T06:21:14;26.83;;;17.95;;
428;SDS011;201;48.758;9.290;2022-12-16T06:23:58;32.72;;;19.35;;
428;SDS011;201;48.758;9.290;2022-12-16T06:26:42;27.60;;;19.23;;
428;SDS011;201;48.758;9.290;2022-12-16T06:29:26;38.85;;;20.35;;
428;SDS011;201;48.758;9.290;2022-12-16T06:32:10;37.88;;;21.58;;
428;SDS011;201;48.758;9.290;2022-12-16T06:34:54;33.63;;;21.83;;
428;SDS011;201;48.758;9.290;2022-12-16T06:37:38;31.25;;;19.88;;
428;SDS011;201;48.758;9.290;2022-12-16T06:40:22;32.67;;;17.90;;
428;SDS011;201;48.758;9.290;2022-12-16T06:43:06;35.83;;;18.20;;
428;SDS011;201;48.758;9.290;2022-12-16T06:45:50;27.65;;;17.50;;
428;SDS011;201;48.758;9.290;2022-12-16T06:48:34;32.28;;;18.83;;
428;SDS011;201;48.758;9.290;2022-12-16T06:51:18;24.83;;;16.00;;
428;SDS011;201;48.758;9.290;2022-12-16T06:54:02;28.38;;;17.92;;
428;SDS011;201;48.758;9.290;2022-12-16T06:56:46;30.42;;;17.75;;
428;SDS011;201;48.758;9.290;2022-12-16T06:59:30;26.80;;;17.02;;
428;SDS011;201;48.758;9.290;2022-12-16T07:02:14;28.80;;;17.92;;
428;SDS011;201;48.758;9.290;2022-12-16T07:04:58;26.80;;;17.20;;
428;SDS011;201;48.758;9.290;2022-12-16T07:07:47;23.15;;;17.20;;
428;SDS011;201;48.758;9.290;2022-12-16T07:10:32;32.85;;;17.90;;
428;SDS011;201;48.758;9.290;2022-12-16T07:13:16;35.30;;;19.38;;
428;SDS011;201;48.758;9.290;2022-12-16T07:16:00;30.60;;;19.98;;
428;SDS011;201;48.758;9.290;2022-12-16T07:18:44;34.90;;;19.98;;
428;SDS011;201;48.758;9.290;2022-12-16T07:21:28;33.53;;;20.48;;
428;SDS011;201;48.758;9.290;2022-12-16T07:24:12;27.52;;;17.15;;
428;SDS011;201;48.758;9.290;2022-12-16T07:26:56;29.95;;;18.30;;
428;SDS011;201;48.758;9.290;2022-12-16T07:29:40;31.15;;;19.55;;
428;SDS011;201;48.758;9.290;2022-12-16T07:32:24;28.48;;;18.63;;
428;SDS011;201;48.758;9.290;2022-12-16T07:35:08;35.03;;;19.77;;
428;SDS011;201;48.758;9.290;2022-12-16T07:37:52;29.10;;;15.73;;
428;SDS011;201;48.758;9.290;2022-12-16T07:40:36;32.25;;;17.02;;
428;SDS011;201;48.758;9.290;2022-12-16T07:43:20;26.83;;;17.35;;
428;SDS011;201;48.758;9.290;2022-12-16T07:46:04;26.95;;;14.85;;
428;SDS011;201;48.758;9.290;2022-12-16T07:48:48;30.27;;;16.95;;
428;SDS011;201;48.758;9.290;2022-12-16T07:51:32;28.70;;;17.40;;
428;SDS011;201;48.758;9.290;2022-12-16T07:54:16;25.50;;;15.98;;
428;SDS011;201;48.758;9.290;2022-12-16T07:57:00;35.45;;;15.65;;
428;SDS011;201;48.758;9.290;2022-12-16T07:59:45;30.50;;;15.90;;
428;SDS011;201;48.758;9.290;2022-12-16T08:02:29;28.88;;;16.27;;
428;SDS011;201;48.758;9.290;2022-12-16T08:05:13;27.02;;;14.05;;
428;SDS011;201;48.758;9.290;2022-12-16T08:07:58;25.83;;;15.93;;
428;SDS011;201;48.758;9.290;2022-12-16T08:10:41;28.27;;;16.55;;
428;SDS011;201;48.758;9.290;2022-12-16T08:13:25;24.55;;;13.95;;
428;SDS011;201;48.758;9.290;2022-12-16T08:16:11;27.40;;;14.05;;
428;SDS011;201;48.758;9.290;2022-12-16T08:19:03;21.85;;;12.88;;
428;SDS011;201;48.758;9.290;2022-12-16T08:21:48;24.23;;;13.50;;
428;SDS011;201;48.758;9.290;2022-12-16T08:24:32;22.95;;;13.70;;
428;SDS011;201;48.758;9.290;2022-12-16T08:27:16;31.20;;;16.55;;
428;SDS011;201;48.758;9.290;2022-12-16T08:30:00;21.55;;;14.45;;
428;SDS011;201;48.758;9.290;2022-12-16T08:32:44;27.67;;;16.35;;
428;SDS011;201;48.758;9.290;2022-12-16T08:35:28;21.52;;;14.20;;
428;SDS011;201;48.758;9.290;2022-12-16T08:38:12;25.20;;;14.82;;
428;SDS011;201;48.758;9.290;2022-12-16T08:40:56;20.40;;;11.75;;
428;SDS011;201;48.758;9.290;2022-12-16T08:43:40;23.88;;;14.00;;
428;SDS011;201;48.758;9.290;2022-12-16T08:46:24;22.27;;;14.02;;
428;SDS011;201;48.758;9.290;2022-12-16T08:49:08;20.38;;;11.95;;
428;SDS011;201;48.758;9.290;2022-12-16T08:51:52;19.45;;;12.32;;
428;SDS011;201;48.758;9.290;2022-12-16T08:54:36;23.63;;;13.88;;
428;SDS011;201;48.758;9.290;2022-12-16T08:57:20;17.40;;;12.55;;
428;SDS011;201;48.758;9.290;2022-12-16T09:00:04;21.83;;;12.45;;
428;SDS011;201;48.758;9.290;2022-12-16T09:02:56;20.88;;;13.00;;
428;SDS011;201;48.758;9.290;2022-12-16T09:05:41;19.92;;;12.57;;
428;SDS011;201;48.758;9.290;2022-12-16T09:08:26;27.25;;;14.07;;
428;SDS011;201;48.758;9.290;2022-12-16T09:11:10;21.33;;;12.70;;
428;SDS011;201;48.758;9.290;2022-12-16T09:13:54;21.38;;;12.93;;
428;SDS011;201;48.758;9.290;2022-12-16T09:16:38;16.05;;;12.30;;
428;SDS011;201;48.758;9.290;2022-12-16T09:19:22;15.40;;;10.75;;
428;SDS011;201;48.758;9.290;2022-12-16T09:22:06;15.25;;;11.13;;
428;SDS011;201;48.758;9.290;2022-12-16T09:24:52;20.00;;;11.52;;
428;SDS011;201;48.758;9.290;2022-12-16T09:27:36;17.27;;;11.00;;
428;SDS011;201;48.758;9.290;2022-12-16T09:30:37;18.38;;;11.15;;
428;SDS011;201;48.758;9.290;2022-12-16T09:33:21;18.10;;;11.23;;
428;SDS011;201;48.758;9.290;2022-12-16T09:36:05;15.93;;;11.00;;
428;SDS011;201;48.758;9.290;2022-12-16T09:38:50;18.42;;;10.20;;
428;SDS011;201;48.758;9.290;2022-12-16T09:41:38;16.50;;;10.68;;
428;SDS011;201;48.758;9.290;2022-12-16T09:44:33;15.18;;;9.88;;
428;SDS011;201;48.758;9.290;2022-12-16T09:47:35;19.90;;;12.93;;
428;SDS011;201;48.758;9.290;2022-12-16T09:50:37;16.73;;;10.73;;
428;SDS011;201;48.758;9.290;2022-12-16T09:53:24;17.85;;;11.23;;
428;SDS011;201;48.758;9.290;2022-12-16T09:56:13;18.50;;;10.40;;
428;SDS011;201;48.758;9.290;2022-12-16T09:59:06;17.83;;;11.13;;
428;SDS011;201;48.758;9.290;2022-12-16T10:01:55;9.73;;;8.63;;
428;SDS011;201;48.758;9.290;2022-12-16T10:04:39;18.38;;;10.68;;
428;SDS011;201;48.758;9.290;2022-12-16T10:07:23;14.77;;;9.80;;
428;SDS011;201;48.758;9.290;2022-12-16T10:10:16;14.05;;;10.20;;
428;SDS011;201;48.758;9.290;2022-12-16T10:26:07;19.10;;;9.88;;
428;SDS011;201;48.758;9.290;2022-12-16T10:31:23;13.73;;;9.32;;
428;SDS011;201;48.758;9.290;2022-12-16T10:34:15;14.07;;;9.45;;
428;SDS011;201;48.758;9.290;2022-12-16T10:37:02;14.00;;;9.50;;
428;SDS011;201;48.758;9.290;2022-12-16T10:39:51;18.42;;;10.40;;
428;SDS011;201;48.758;9.290;2022-12-16T10:42:43;16.05;;;11.00;;
428;SDS011;201;48.758;9.290;2022-12-16T10:45:37;15.60;;;9.55;;
428;SDS011;201;48.758;9.290;2022-12-16T10:48:26;9.95;;;8.48;;
428;SDS011;201;48.758;9.290;2022-12-16T10:51:14;15.77;;;9.85;;
428;SDS011;201;48.758;9.290;2022-12-16T11:00:11;17.17;;;9.40;;
428;SDS011;201;48.758;9.290;2022-12-16T11:06:01;12.52;;;8.48;;
428;SDS011;201;48.758;9.290;2022-12-16T11:08:46;13.30;;;8.00;;
428;SDS011;201;48.758;9.290;2022-12-16T11:11:30;14.60;;;8.85;;
428;SDS011;201;48.758;9.290;2022-12-16T11:20:31;11.73;;;9.00;;
428;SDS011;201;48.758;9.290;2022-12-16T11:23:22;15.25;;;8.95;;
428;SDS011;201;48.758;9.290;2022-12-16T11:26:12;13.35;;;9.27;;
428;SDS011;201;48.758;9.290;2022-12-16T11:29:16;14.68;;;9.68;;
428;SDS011;201;48.758;9.290;2022-12-16T11:35:08;14.40;;;10.48;;
428;SDS011;201;48.758;9.290;2022-12-16T11:37:55;13.80;;;9.40;;
428;SDS011;201;48.758;9.290;2022-12-16T11:40:42;11.00;;;8.02;;
428;SDS011;201;48.758;9.290;2022-12-16T11:43:26;11.75;;;9.18;;
428;SDS011;201;48.758;9.290;2022-12-16T11:46:18;15.70;;;8.80;;
428;SDS011;201;48.758;9.290;2022-12-16T11:49:15;15.32;;;9.27;;
428;SDS011;201;48.758;9.290;2022-12-16T11:52:04;12.50;;;8.77;;
428;SDS011;201;48.758;9.290;2022-12-16T11:54:57;18.35;;;9.63;;
428;SDS011;201;48.758;9.290;2022-12-16T11:57:46;9.90;;;7.05;;
428;SDS011;201;48.758;9.290;2022-12-16T12:00:39;13.95;;;8.50;;
428;SDS011;201;48.758;9.290;2022-12-16T12:03:28;13.50;;;8.48;;
428;SDS011;201;48.758;9.290;2022-12-16T12:09:06;13.75;;;8.52;;
428;SDS011;201;48.758;9.290;2022-12-16T12:12:09;12.05;;;8.35;;
428;SDS011;201;48.758;9.290;2022-12-16T12:18:12;12.63;;;9.05;;
428;SDS011;201;48.758;9.290;2022-12-16T12:21:32;16.92;;;10.15;;
428;SDS011;201;48.758;9.290;2022-12-16T12:24:41;11.60;;;8.23;;
428;SDS011;201;48.758;9.290;2022-12-16T12:31:11;14.60;;;7.95;;
428;SDS011;201;48.758;9.290;2022-12-16T12:37:24;13.73;;;8.55;;
428;SDS011;201;48.758;9.290;2022-12-16T12:40:25;9.18;;;7.75;;
428;SDS011;201;48.758;9.290;2022-12-16T12:44:07;13.20;;;8.75;;
428;SDS011;201;48.758;9.290;2022-12-16T12:46:59;14.85;;;9.10;;
428;SDS011;201;48.758;9.290;2022-12-16T12:59:26;10.95;;;7.70;;
428;SDS011;201;48.758;9.290;2022-12-16T13:02:38;12.55;;;8.10;;
428;SDS011;201;48.758;9.290;2022-12-16T13:05:36;12.13;;;7.32;;
428;SDS011;201;48.758;9.290;2022-12-16T13:08:41;10.02;;;7.65;;
428;SDS011;201;48.758;9.290;2022-12-16T13:11:31;13.45;;;7.68;;
428;SDS011;201;48.758;9.290;2022-12-16T13:17:18;11.90;;;7.78;;
428;SDS011;201;48.758;9.290;2022-12-16T13:20:04;8.52;;;7.05;;
428;SDS011;201;48.758;9.290;2022-12-16T13:26:17;12.38;;;6.50;;
428;SDS011;201;48.758;9.290;2022-12-16T13:32:01;10.77;;;7.53;;
428;SDS011;201;48.758;9.290;2022-12-16T13:34:57;10.70;;;6.72;;
428;SDS011;201;48.758;9.290;2022-12-16T13:37:55;12.50;;;7.95;;
428;SDS011;201;48.758;9.290;2022-12-16T13:43:54;8.23;;;7.80;;
428;SDS011;201;48.758;9.290;2022-12-16T13:55:14;10.60;;;7.40;;
428;SDS011;201;48.758;9.290;2022-12-16T13:58:04;13.85;;;9.45;;
428;SDS011;201;48.758;9.290;2022-12-16T14:01:01;12.88;;;9.38;;
428;SDS011;201;48.758;9.290;2022-12-16T14:03:49;15.63;;;10.07;;
428;SDS011;201;48.758;9.290;2022-12-16T14:06:35;12.27;;;7.68;;
428;SDS011;201;48.758;9.290;2022-12-16T14:09:37;11.30;;;8.50;;
428;SDS011;201;48.758;9.290;2022-12-16T14:21:53;17.27;;;9.98;;
428;SDS011;201;48.758;9.290;2022-12-16T14:24:47;15.18;;;9.43;;
428;SDS011;201;48.758;9.290;2022-12-16T14:27:31;11.88;;;7.32;;
428;SDS011;201;48.758;9.290;2022-12-16T14:30:24;12.60;;;9.20;;
428;SDS011;201;48.758;9.290;2022-12-16T14:33:22;12.68;;;8.32;;
428;SDS011;201;48.758;9.290;2022-12-16T14:36:20;9.20;;;7.45;;
428;SDS011;201;48.758;9.290;2022-12-16T14:39:19;13.52;;;8.05;;
428;SDS011;201;48.758;9.290;2022-12-16T14:42:14;12.20;;;8.07;;
428;SDS011;201;48.758;9.290;2022-12-16T14:45:03;10.00;;;8.43;;
428;SDS011;201;48.758;9.290;2022-12-16T14:47:48;14.80;;;8.80;;
428;SDS011;201;48.758;9.290;2022-12-16T14:50:32;12.52;;;8.75;;
428;SDS011;201;48.758;9.290;2022-12-16T14:53:21;18.73;;;9.40;;
428;SDS011;201;48.758;9.290;2022-12-16T14:56:19;12.77;;;8.38;;
428;SDS011;201;48.758;9.290;2022-12-16T14:59:05;12.52;;;7.70;;
428;SDS011;201;48.758;9.290;2022-12-16T15:05:10;16.38;;;8.85;;
428;SDS011;201;48.758;9.290;2022-12-16T15:07:54;11.63;;;7.90;;
428;SDS011;201;48.758;9.290;2022-12-16T15:10:39;10.57;;;7.85;;
428;SDS011;201;48.758;9.290;2022-12-16T15:13:23;13.05;;;9.18;;
428;SDS011;201;48.758;9.290;2022-12-16T15:16:10;12.05;;;8.18;;
428;SDS011;201;48.758;9.290;2022-12-16T15:18:59;11.45;;;8.35;;
428;SDS011;201;48.758;9.290;2022-12-16T15:21:45;13.98;;;10.23;;
428;SDS011;201;48.758;9.290;2022-12-16T15:24:31;15.02;;;9.40;;
428;SDS011;201;48.758;9.290;2022-12-16T15:33:18;12.98;;;8.20;;
428;SDS011;201;48.758;9.290;2022-12-16T15:36:04;14.27;;;9.23;;
428;SDS011;201;48.758;9.290;2022-12-16T15:38:49;15.88;;;9.68;;
428;SDS011;201;48.758;9.290;2022-12-16T15:41:33;12.90;;;9.32;;
428;SDS011;201;48.758;9.290;2022-12-16T15:44:23;14.88;;;9.43;;
428;SDS011;201;48.758;9.290;2022-12-16T15:47:20;11.63;;;9.02;;
428;SDS011;201;48.758;9.290;2022-12-16T15:50:15;13.05;;;8.60;;
428;SDS011;201;48.758;9.290;2022-12-16T15:53:13;15.20;;;8.75;;
428;SDS011;201;48.758;9.290;2022-12-16T15:56:22;12.38;;;8.52;;
428;SDS011;201;48.758;9.290;2022-12-16T15:59:21;13.25;;;8.40;;
428;SDS011;201;48.758;9.290;2022-12-16T16:02:17;10.48;;;8.00;;
428;SDS011;201;48.758;9.290;2022-12-16T16:05:08;27.52;;;9.73;;
428;SDS011;201;48.758;9.290;2022-12-16T16:07:53;14.57;;;9.45;;
428;SDS011;201;48.758;9.290;2022-12-16T16:10:37;13.10;;;8.70;;
428;SDS011;201;48.758;9.290;2022-12-16T16:13:25;14.63;;;9.73;;
428;SDS011;201;48.758;9.290;2022-12-16T16:16:09;13.40;;;9.15;;
428;SDS011;201;48.758;9.290;2022-12-16T16:18:54;10.95;;;8.43;;
428;SDS011;201;48.758;9.290;2022-12-16T16:21:38;14.63;;;9.60;;
428;SDS011;201;48.758;9.290;2022-12-16T16:24:22;12.40;;;8.65;;
428;SDS011;201;48.758;9.290;2022-12-16T16:27:10;16.33;;;9.50;;
428;SDS011;201;48.758;9.290;2022-12-16T16:29:56;13.05;;;8.30;;
428;SDS011;201;48.758;9.290;2022-12-16T16:32:41;14.85;;;8.93;;
428;SDS011;201;48.758;9.290;2022-12-16T16:35:25;12.63;;;9.27;;
428;SDS011;201;48.758;9.290;2022-12-16T16:38:09;13.20;;;9.85;;
428;SDS011;201;48.758;9.290;2022-12-16T16:40:53;14.18;;;9.00;;
428;SDS011;201;48.758;9.290;2022-12-16T16:43:37;15.80;;;10.05;;
428;SDS011;201;48.758;9.290;2022-12-16T16:46:37;16.23;;;9.93;;
428;SDS011;201;48.758;9.290;2022-12-16T16:49:33;11.27;;;8.80;;
428;SDS011;201;48.758;9.290;2022-12-16T16:52:22;21.42;;;9.63;;
428;SDS011;201;48.758;9.290;2022-12-16T16:55:12;13.48;;;9.50;;
428;SDS011;201;48.758;9.290;2022-12-16T16:58:12;14.68;;;9.70;;
428;SDS011;201;48.758;9.290;2022-12-16T17:01:10;24.70;;;10.18;;
428;SDS011;201;48.758;9.290;2022-12-16T17:03:55;16.63;;;9.50;;
428;SDS011;201;48.758;9.290;2022-12-16T17:06:40;16.83;;;8.95;;
428;SDS011;201;48.758;9.290;2022-12-16T17:09:24;12.45;;;9.43;;
428;SDS011;201;48.758;9.290;2022-12-16T17:12:21;16.90;;;9.75;;
428;SDS011;201;48.758;9.290;2022-12-16T17:15:17;14.95;;;10.60;;
428;SDS011;201;48.758;9.290;2022-12-16T17:18:14;17.83;;;11.52;;
428;SDS011;201;48.758;9.290;2022-12-16T17:20:59;16.50;;;9.85;;
428;SDS011;201;48.758;9.290;2022-12-16T17:23:43;17.30;;;10.77;;
428;SDS011;201;48.758;9.290;2022-12-16T17:26:27;14.45;;;9.98;;
428;SDS011;201;48.758;9.290;2022-12-16T17:29:19;17.27;;;11.90;;
428;SDS011;201;48.758;9.290;2022-12-16T17:32:05;12.32;;;9.93;;
428;SDS011;201;48.758;9.290;2022-12-16T17:34:49;15.65;;;9.75;;
428;SDS011;201;48.758;9.290;2022-12-16T17:37:33;14.27;;;10.15;;
428;SDS011;201;48.758;9.290;2022-12-16T17:40:18;15.90;;;10.55;;
428;SDS011;201;48.758;9.290;2022-12-16T17:43:02;19.40;;;10.20;;
428;SDS011;201;48.758;9.290;2022-12-16T17:46:00;19.83;;;11.48;;
428;SDS011;201;48.758;9.290;2022-12-16T17:48:50;12.45;;;9.23;;
428;SDS011;201;48.758;9.290;2022-12-16T17:51:38;16.45;;;10.13;;
428;SDS011;201;48.758;9.290;2022-12-16T17:54:22;16.88;;;9.82;;
428;SDS011;201;48.758;9.290;2022-12-16T17:57:06;17.15;;;10.90;;
428;SDS011;201;48.758;9.290;2022-12-16T17:59:51;15.52;;;11.90;;
428;SDS011;201;48.758;9.290;2022-12-16T18:02:35;18.65;;;10.93;;
428;SDS011;201;48.758;9.290;2022-12-16T18:05:19;18.13;;;12.38;;
428;SDS011;201;48.758;9.290;2022-12-16T18:08:03;19.60;;;11.80;;
428;SDS011;201;48.758;9.290;2022-12-16T18:10:53;14.27;;;9.88;;
428;SDS011;201;48.758;9.290;2022-12-16T18:13:39;14.15;;;9.88;;
428;SDS011;201;48.758;9.290;2022-12-16T18:16:23;20.08;;;12.02;;
428;SDS011;201;48.758;9.290;2022-12-16T18:19:11;17.35;;;11.20;;
428;SDS011;201;48.758;9.290;2022-12-16T18:21:57;18.50;;;12.40;;
428;SDS011;201;48.758;9.290;2022-12-16T18:24:41;19.65;;;11.25;;
428;SDS011;201;48.758;9.290;2022-12-16T18:27:25;33.13;;;17.25;;
428;SDS011;201;48.758;9.290;2022-12-16T18:30:09;20.58;;;13.70;;
428;SDS011;201;48.758;9.290;2022-12-16T18:32:53;17.23;;;11.55;;
428;SDS011;201;48.758;9.290;2022-12-16T18:35:37;17.70;;;11.80;;
428;SDS011;201;48.758;9.290;2022-12-16T18:38:21;17.58;;;11.35;;
428;SDS011;201;48.758;9.290;2022-12-16T18:41:06;16.77;;;11.73;;
428;SDS011;201;48.758;9.290;2022-12-16T18:44:01;23.38;;;14.23;;
428;SDS011;201;48.758;9.290;2022-12-16T18:46:46;18.13;;;12.73;;
428;SDS011;201;48.758;9.290;2022-12-16T18:49:30;16.92;;;11.52;;
428;SDS011;201;48.758;9.290;2022-12-16T18:52:14;19.95;;;12.48;;
428;SDS011;201;48.758;9.290;2022-12-16T18:54:59;16.63;;;11.55;;
428;SDS011;201;48.758;9.290;2022-12-16T18:57:43;20.92;;;13.35;;
428;SDS011;201;48.758;9.290;2022-12-16T19:00:27;24.00;;;14.50;;